メインページ
METAR-TAF:

METAR-TAF

空港 :

Marion Municipal Airport

マリオン, オハイオ州, アメリカ合衆国

緯度: 40-37-00N, 経度: 083-04-06W, 海抜: 303m

現時点の気象観測

当レポートは1時間3分前の16:53(UTC)に作成
の風 9kt
気温 29°C
湿度 58%
気圧 1019 hPa
視程: 16.1km
高度3900ftの雲は散在している
高度4700ftの雲は散在している

METAR: KMNN 261653Z AUTO 17009KT 10SM SCT039 SCT047 29/20 A3009 RMK AO2 SLP184 T02890200

時間: 13:56 (17:56 UTC)


TAF: 見つかりません

4,000以上の空港の気象観測と天気予報(METAR報とTAF報)

利用可能な観測所は地図上に黄色い丸と赤い丸で示す。

丸の上にカーソルを重ねると観測所名を参照できる。

次にクリックすると気象観測と天気予報を参照できる。

マップの切り替え:黒色「×」印の緑ボタンをクリックして拡大、「-」印の緑ボタンをクリックして縮小、緑色の三角印をクリックして隣りの地図に切り替え


METAR-TAF: